sensor_id;sensor_type;location;lat;lon;timestamp;P1;durP1;ratioP1;P2;durP2;ratioP2
82399;SDS011;72039;48.812;8.198;2023-11-21T00:00:03;5.25;;;1.88;;
82399;SDS011;72039;48.812;8.198;2023-11-21T00:02:35;6.00;;;1.42;;
82399;SDS011;72039;48.812;8.198;2023-11-21T00:05:05;4.85;;;1.40;;
82399;SDS011;72039;48.812;8.198;2023-11-21T00:07:33;4.50;;;1.25;;
82399;SDS011;72039;48.812;8.198;2023-11-21T00:09:58;5.80;;;1.23;;
82399;SDS011;72039;48.812;8.198;2023-11-21T00:12:24;6.10;;;1.63;;
82399;SDS011;72039;48.812;8.198;2023-11-21T00:14:49;3.35;;;1.40;;
82399;SDS011;72039;48.812;8.198;2023-11-21T00:17:17;4.88;;;1.55;;
82399;SDS011;72039;48.812;8.198;2023-11-21T00:19:45;8.70;;;1.70;;
82399;SDS011;72039;48.812;8.198;2023-11-21T00:22:10;5.53;;;1.35;;
82399;SDS011;72039;48.812;8.198;2023-11-21T00:24:38;5.85;;;1.63;;
82399;SDS011;72039;48.812;8.198;2023-11-21T00:27:03;6.70;;;1.40;;
82399;SDS011;72039;48.812;8.198;2023-11-21T00:29:29;3.47;;;1.48;;
82399;SDS011;72039;48.812;8.198;2023-11-21T00:31:54;5.68;;;1.65;;
82399;SDS011;72039;48.812;8.198;2023-11-21T00:34:19;12.05;;;2.67;;
82399;SDS011;72039;48.812;8.198;2023-11-21T00:36:47;4.57;;;1.60;;
82399;SDS011;72039;48.812;8.198;2023-11-21T00:39:15;6.03;;;1.63;;
82399;SDS011;72039;48.812;8.198;2023-11-21T00:41:40;8.20;;;1.67;;
82399;SDS011;72039;48.812;8.198;2023-11-21T00:44:06;6.97;;;1.55;;
82399;SDS011;72039;48.812;8.198;2023-11-21T00:46:37;2.88;;;1.70;;
82399;SDS011;72039;48.812;8.198;2023-11-21T00:49:04;7.80;;;1.42;;
82399;SDS011;72039;48.812;8.198;2023-11-21T00:51:30;6.65;;;1.55;;
82399;SDS011;72039;48.812;8.198;2023-11-21T00:54:00;9.23;;;2.33;;
82399;SDS011;72039;48.812;8.198;2023-11-21T00:56:31;5.38;;;1.42;;
82399;SDS011;72039;48.812;8.198;2023-11-21T00:58:59;6.60;;;1.50;;
82399;SDS011;72039;48.812;8.198;2023-11-21T01:01:27;7.43;;;1.50;;
82399;SDS011;72039;48.812;8.198;2023-11-21T01:03:57;3.28;;;1.15;;
82399;SDS011;72039;48.812;8.198;2023-11-21T01:06:25;8.63;;;1.30;;
82399;SDS011;72039;48.812;8.198;2023-11-21T01:08:52;7.43;;;1.73;;
82399;SDS011;72039;48.812;8.198;2023-11-21T01:11:18;5.80;;;1.48;;
82399;SDS011;72039;48.812;8.198;2023-11-21T01:13:43;9.65;;;1.60;;
82399;SDS011;72039;48.812;8.198;2023-11-21T01:16:12;4.70;;;1.30;;
82399;SDS011;72039;48.812;8.198;2023-11-21T01:18:37;4.13;;;1.20;;
82399;SDS011;72039;48.812;8.198;2023-11-21T01:21:03;5.20;;;1.80;;
82399;SDS011;72039;48.812;8.198;2023-11-21T01:23:28;6.13;;;1.30;;
82399;SDS011;72039;48.812;8.198;2023-11-21T01:25:56;4.88;;;1.40;;
82399;SDS011;72039;48.812;8.198;2023-11-21T01:28:22;7.28;;;1.23;;
82399;SDS011;72039;48.812;8.198;2023-11-21T01:30:49;6.15;;;1.20;;
82399;SDS011;72039;48.812;8.198;2023-11-21T01:33:15;3.25;;;1.20;;
82399;SDS011;72039;48.812;8.198;2023-11-21T01:35:40;3.50;;;1.60;;
82399;SDS011;72039;48.812;8.198;2023-11-21T01:38:11;6.53;;;1.30;;
82399;SDS011;72039;48.812;8.198;2023-11-21T01:40:40;2.50;;;0.95;;
82399;SDS011;72039;48.812;8.198;2023-11-21T01:43:05;2.85;;;1.05;;
82399;SDS011;72039;48.812;8.198;2023-11-21T01:45:30;5.53;;;1.63;;
82399;SDS011;72039;48.812;8.198;2023-11-21T01:48:01;3.75;;;1.05;;
82399;SDS011;72039;48.812;8.198;2023-11-21T01:50:31;3.78;;;1.35;;
82399;SDS011;72039;48.812;8.198;2023-11-21T01:53:00;4.22;;;1.17;;
82399;SDS011;72039;48.812;8.198;2023-11-21T01:55:26;7.35;;;1.45;;
82399;SDS011;72039;48.812;8.198;2023-11-21T01:57:57;3.28;;;1.38;;
82399;SDS011;72039;48.812;8.198;2023-11-21T02:00:23;2.50;;;1.10;;
82399;SDS011;72039;48.812;8.198;2023-11-21T02:02:49;3.28;;;1.13;;
82399;SDS011;72039;48.812;8.198;2023-11-21T02:05:19;4.88;;;1.33;;
82399;SDS011;72039;48.812;8.198;2023-11-21T02:07:50;5.00;;;1.45;;
82399;SDS011;72039;48.812;8.198;2023-11-21T02:10:21;5.80;;;1.80;;
82399;SDS011;72039;48.812;8.198;2023-11-21T02:12:51;3.88;;;1.30;;
82399;SDS011;72039;48.812;8.198;2023-11-21T02:15:19;6.82;;;1.30;;
82399;SDS011;72039;48.812;8.198;2023-11-21T02:17:48;6.90;;;1.40;;
82399;SDS011;72039;48.812;8.198;2023-11-21T02:20:18;6.07;;;1.58;;
82399;SDS011;72039;48.812;8.198;2023-11-21T02:22:54;8.20;;;1.77;;
82399;SDS011;72039;48.812;8.198;2023-11-21T02:25:28;5.97;;;1.58;;
82399;SDS011;72039;48.812;8.198;2023-11-21T02:27:55;3.90;;;1.20;;
82399;SDS011;72039;48.812;8.198;2023-11-21T02:30:21;4.75;;;1.40;;
82399;SDS011;72039;48.812;8.198;2023-11-21T02:32:48;4.05;;;1.65;;
82399;SDS011;72039;48.812;8.198;2023-11-21T02:35:17;3.78;;;1.45;;
82399;SDS011;72039;48.812;8.198;2023-11-21T02:37:45;3.83;;;1.75;;
82399;SDS011;72039;48.812;8.198;2023-11-21T02:40:11;3.85;;;1.40;;
82399;SDS011;72039;48.812;8.198;2023-11-21T02:42:42;4.30;;;1.25;;
82399;SDS011;72039;48.812;8.198;2023-11-21T02:45:08;6.68;;;2.08;;
82399;SDS011;72039;48.812;8.198;2023-11-21T02:47:37;6.22;;;1.60;;
82399;SDS011;72039;48.812;8.198;2023-11-21T02:50:06;4.97;;;1.70;;
82399;SDS011;72039;48.812;8.198;2023-11-21T02:52:34;4.00;;;1.40;;
82399;SDS011;72039;48.812;8.198;2023-11-21T02:55:00;4.28;;;1.52;;
82399;SDS011;72039;48.812;8.198;2023-11-21T02:57:29;4.03;;;1.40;;
82399;SDS011;72039;48.812;8.198;2023-11-21T02:59:54;5.45;;;1.30;;
82399;SDS011;72039;48.812;8.198;2023-11-21T03:02:20;8.80;;;2.25;;
82399;SDS011;72039;48.812;8.198;2023-11-21T03:04:46;3.42;;;1.55;;
82399;SDS011;72039;48.812;8.198;2023-11-21T03:07:13;6.75;;;1.40;;
82399;SDS011;72039;48.812;8.198;2023-11-21T03:09:38;7.80;;;1.58;;
82399;SDS011;72039;48.812;8.198;2023-11-21T03:12:06;5.10;;;1.30;;
82399;SDS011;72039;48.812;8.198;2023-11-21T03:14:31;4.53;;;1.50;;
82399;SDS011;72039;48.812;8.198;2023-11-21T03:17:01;3.92;;;1.83;;
82399;SDS011;72039;48.812;8.198;2023-11-21T03:19:29;11.68;;;2.97;;
82399;SDS011;72039;48.812;8.198;2023-11-21T03:21:57;5.18;;;1.50;;
82399;SDS011;72039;48.812;8.198;2023-11-21T03:24:28;6.05;;;1.70;;
82399;SDS011;72039;48.812;8.198;2023-11-21T03:26:56;7.20;;;1.65;;
82399;SDS011;72039;48.812;8.198;2023-11-21T03:29:21;5.30;;;1.52;;
82399;SDS011;72039;48.812;8.198;2023-11-21T03:31:49;4.00;;;1.75;;
82399;SDS011;72039;48.812;8.198;2023-11-21T03:34:16;5.53;;;1.60;;
82399;SDS011;72039;48.812;8.198;2023-11-21T03:36:53;4.15;;;1.77;;
82399;SDS011;72039;48.812;8.198;2023-11-21T03:39:19;3.30;;;1.63;;
82399;SDS011;72039;48.812;8.198;2023-11-21T03:41:45;3.70;;;1.65;;
82399;SDS011;72039;48.812;8.198;2023-11-21T03:44:13;3.78;;;1.50;;
82399;SDS011;72039;48.812;8.198;2023-11-21T03:46:41;3.15;;;1.90;;
82399;SDS011;72039;48.812;8.198;2023-11-21T03:49:11;4.93;;;1.42;;
82399;SDS011;72039;48.812;8.198;2023-11-21T03:51:38;6.38;;;1.55;;
82399;SDS011;72039;48.812;8.198;2023-11-21T03:54:06;6.93;;;1.60;;
82399;SDS011;72039;48.812;8.198;2023-11-21T03:56:33;8.77;;;2.25;;
82399;SDS011;72039;48.812;8.198;2023-11-21T03:59:01;6.60;;;2.00;;
82399;SDS011;72039;48.812;8.198;2023-11-21T04:01:26;7.95;;;2.08;;
82399;SDS011;72039;48.812;8.198;2023-11-21T04:03:51;8.30;;;2.30;;
82399;SDS011;72039;48.812;8.198;2023-11-21T04:06:17;7.25;;;1.77;;
82399;SDS011;72039;48.812;8.198;2023-11-21T04:08:45;4.65;;;2.03;;
82399;SDS011;72039;48.812;8.198;2023-11-21T04:11:11;8.50;;;3.40;;
82399;SDS011;72039;48.812;8.198;2023-11-21T04:13:37;6.35;;;2.03;;
82399;SDS011;72039;48.812;8.198;2023-11-21T04:16:03;8.30;;;1.90;;
82399;SDS011;72039;48.812;8.198;2023-11-21T04:18:30;4.38;;;1.77;;
82399;SDS011;72039;48.812;8.198;2023-11-21T04:20:55;6.63;;;2.08;;
82399;SDS011;72039;48.812;8.198;2023-11-21T04:23:20;3.00;;;1.70;;
82399;SDS011;72039;48.812;8.198;2023-11-21T04:25:45;4.85;;;2.22;;
82399;SDS011;72039;48.812;8.198;2023-11-21T04:28:11;5.05;;;1.55;;
82399;SDS011;72039;48.812;8.198;2023-11-21T04:30:36;6.00;;;1.80;;
82399;SDS011;72039;48.812;8.198;2023-11-21T04:33:04;5.93;;;2.00;;
82399;SDS011;72039;48.812;8.198;2023-11-21T04:35:32;8.85;;;2.03;;
82399;SDS011;72039;48.812;8.198;2023-11-21T04:38:02;4.85;;;1.67;;
82399;SDS011;72039;48.812;8.198;2023-11-21T04:40:29;5.18;;;2.00;;
82399;SDS011;72039;48.812;8.198;2023-11-21T04:42:55;7.88;;;2.63;;
82399;SDS011;72039;48.812;8.198;2023-11-21T04:45:22;6.78;;;1.98;;
82399;SDS011;72039;48.812;8.198;2023-11-21T04:47:47;9.93;;;2.55;;
82399;SDS011;72039;48.812;8.198;2023-11-21T04:50:12;6.03;;;2.10;;
82399;SDS011;72039;48.812;8.198;2023-11-21T04:52:42;6.97;;;1.70;;
82399;SDS011;72039;48.812;8.198;2023-11-21T04:55:07;5.70;;;2.10;;
82399;SDS011;72039;48.812;8.198;2023-11-21T04:57:35;6.88;;;2.30;;
82399;SDS011;72039;48.812;8.198;2023-11-21T05:00:04;5.53;;;1.80;;
82399;SDS011;72039;48.812;8.198;2023-11-21T05:02:31;4.32;;;2.67;;
82399;SDS011;72039;48.812;8.198;2023-11-21T05:05:03;6.20;;;1.92;;
82399;SDS011;72039;48.812;8.198;2023-11-21T05:07:30;5.75;;;2.10;;
82399;SDS011;72039;48.812;8.198;2023-11-21T05:09:59;9.80;;;2.60;;
82399;SDS011;72039;48.812;8.198;2023-11-21T05:12:24;8.80;;;2.10;;
82399;SDS011;72039;48.812;8.198;2023-11-21T05:14:50;8.77;;;2.22;;
82399;SDS011;72039;48.812;8.198;2023-11-21T05:17:18;6.57;;;2.70;;
82399;SDS011;72039;48.812;8.198;2023-11-21T05:19:43;3.00;;;2.05;;
82399;SDS011;72039;48.812;8.198;2023-11-21T05:22:10;6.00;;;2.40;;
82399;SDS011;72039;48.812;8.198;2023-11-21T05:24:37;4.43;;;2.08;;
82399;SDS011;72039;48.812;8.198;2023-11-21T05:27:04;4.47;;;1.95;;
82399;SDS011;72039;48.812;8.198;2023-11-21T05:29:32;9.02;;;2.35;;
82399;SDS011;72039;48.812;8.198;2023-11-21T05:31:57;7.90;;;2.20;;
82399;SDS011;72039;48.812;8.198;2023-11-21T05:34:22;12.18;;;3.85;;
82399;SDS011;72039;48.812;8.198;2023-11-21T05:36:51;6.55;;;2.50;;
82399;SDS011;72039;48.812;8.198;2023-11-21T05:42:47;7.40;;;2.22;;
82399;SDS011;72039;48.812;8.198;2023-11-21T05:45:16;6.65;;;2.58;;
82399;SDS011;72039;48.812;8.198;2023-11-21T05:48:02;7.05;;;2.28;;
82399;SDS011;72039;48.812;8.198;2023-11-21T05:50:31;3.30;;;2.30;;
82399;SDS011;72039;48.812;8.198;2023-11-21T05:52:57;4.75;;;2.78;;
82399;SDS011;72039;48.812;8.198;2023-11-21T05:55:25;6.47;;;2.92;;
82399;SDS011;72039;48.812;8.198;2023-11-21T05:57:50;8.88;;;2.42;;
82399;SDS011;72039;48.812;8.198;2023-11-21T06:00:16;5.07;;;2.60;;
82399;SDS011;72039;48.812;8.198;2023-11-21T06:02:50;8.25;;;2.88;;
82399;SDS011;72039;48.812;8.198;2023-11-21T06:05:18;4.57;;;3.03;;
82399;SDS011;72039;48.812;8.198;2023-11-21T06:07:44;7.82;;;3.20;;
82399;SDS011;72039;48.812;8.198;2023-11-21T06:10:10;8.10;;;2.80;;
82399;SDS011;72039;48.812;8.198;2023-11-21T06:12:39;6.50;;;2.78;;
82399;SDS011;72039;48.812;8.198;2023-11-21T06:15:05;4.07;;;3.45;;
82399;SDS011;72039;48.812;8.198;2023-11-21T06:17:33;4.20;;;2.50;;
82399;SDS011;72039;48.812;8.198;2023-11-21T06:20:01;5.40;;;3.05;;
82399;SDS011;72039;48.812;8.198;2023-11-21T06:22:37;6.55;;;2.60;;
82399;SDS011;72039;48.812;8.198;2023-11-21T06:25:10;6.85;;;3.05;;
82399;SDS011;72039;48.812;8.198;2023-11-21T06:27:38;5.85;;;3.20;;
82399;SDS011;72039;48.812;8.198;2023-11-21T06:30:05;6.90;;;3.97;;
82399;SDS011;72039;48.812;8.198;2023-11-21T06:32:32;4.70;;;3.78;;
82399;SDS011;72039;48.812;8.198;2023-11-21T06:35:00;7.00;;;3.47;;
82399;SDS011;72039;48.812;8.198;2023-11-21T06:37:26;6.82;;;3.45;;
82399;SDS011;72039;48.812;8.198;2023-11-21T06:39:52;5.43;;;3.45;;
82399;SDS011;72039;48.812;8.198;2023-11-21T06:42:18;6.82;;;3.83;;
82399;SDS011;72039;48.812;8.198;2023-11-21T06:44:46;8.48;;;3.63;;
82399;SDS011;72039;48.812;8.198;2023-11-21T06:47:12;5.93;;;3.53;;
82399;SDS011;72039;48.812;8.198;2023-11-21T06:49:41;6.35;;;3.75;;
82399;SDS011;72039;48.812;8.198;2023-11-21T06:52:12;5.38;;;3.40;;
82399;SDS011;72039;48.812;8.198;2023-11-21T06:54:37;6.32;;;3.08;;
82399;SDS011;72039;48.812;8.198;2023-11-21T06:57:04;5.47;;;3.55;;
82399;SDS011;72039;48.812;8.198;2023-11-21T06:59:30;6.40;;;3.70;;
82399;SDS011;72039;48.812;8.198;2023-11-21T07:01:55;5.22;;;3.42;;
82399;SDS011;72039;48.812;8.198;2023-11-21T07:04:20;6.32;;;3.78;;
82399;SDS011;72039;48.812;8.198;2023-11-21T07:06:48;11.95;;;4.53;;
82399;SDS011;72039;48.812;8.198;2023-11-21T07:09:13;13.30;;;6.32;;
82399;SDS011;72039;48.812;8.198;2023-11-21T07:11:40;13.93;;;7.28;;
82399;SDS011;72039;48.812;8.198;2023-11-21T07:14:15;8.45;;;3.70;;
82399;SDS011;72039;48.812;8.198;2023-11-21T07:16:46;7.85;;;3.65;;
82399;SDS011;72039;48.812;8.198;2023-11-21T07:19:20;6.60;;;3.40;;
82399;SDS011;72039;48.812;8.198;2023-11-21T07:21:46;7.63;;;3.40;;
82399;SDS011;72039;48.812;8.198;2023-11-21T07:24:12;8.20;;;3.85;;
82399;SDS011;72039;48.812;8.198;2023-11-21T07:26:40;6.32;;;3.10;;
82399;SDS011;72039;48.812;8.198;2023-11-21T07:29:08;7.82;;;3.40;;
82399;SDS011;72039;48.812;8.198;2023-11-21T07:31:36;9.40;;;4.18;;
82399;SDS011;72039;48.812;8.198;2023-11-21T07:34:05;8.40;;;4.63;;
82399;SDS011;72039;48.812;8.198;2023-11-21T07:36:30;7.90;;;5.20;;
82399;SDS011;72039;48.812;8.198;2023-11-21T07:38:58;9.85;;;4.78;;
82399;SDS011;72039;48.812;8.198;2023-11-21T07:41:23;8.95;;;5.00;;
82399;SDS011;72039;48.812;8.198;2023-11-21T07:43:51;8.55;;;4.53;;
82399;SDS011;72039;48.812;8.198;2023-11-21T07:46:16;11.25;;;4.30;;
82399;SDS011;72039;48.812;8.198;2023-11-21T07:48:42;8.55;;;4.38;;
82399;SDS011;72039;48.812;8.198;2023-11-21T07:51:09;11.65;;;4.50;;
82399;SDS011;72039;48.812;8.198;2023-11-21T07:53:35;7.75;;;4.00;;
82399;SDS011;72039;48.812;8.198;2023-11-21T07:56:04;7.55;;;4.38;;
82399;SDS011;72039;48.812;8.198;2023-11-21T08:00:59;12.43;;;6.40;;
82399;SDS011;72039;48.812;8.198;2023-11-21T08:03:25;14.63;;;5.82;;
82399;SDS011;72039;48.812;8.198;2023-11-21T08:05:59;11.38;;;5.95;;
82399;SDS011;72039;48.812;8.198;2023-11-21T08:08:24;16.65;;;7.85;;
82399;SDS011;72039;48.812;8.198;2023-11-21T08:10:50;5.47;;;3.60;;
82399;SDS011;72039;48.812;8.198;2023-11-21T08:13:27;5.35;;;2.92;;
82399;SDS011;72039;48.812;8.198;2023-11-21T08:15:57;6.90;;;3.60;;
82399;SDS011;72039;48.812;8.198;2023-11-21T08:18:26;4.85;;;3.22;;
82399;SDS011;72039;48.812;8.198;2023-11-21T08:20:52;6.22;;;2.90;;
82399;SDS011;72039;48.812;8.198;2023-11-21T08:23:20;6.60;;;3.40;;
82399;SDS011;72039;48.812;8.198;2023-11-21T08:25:45;5.82;;;3.47;;
82399;SDS011;72039;48.812;8.198;2023-11-21T08:28:11;7.30;;;3.78;;
82399;SDS011;72039;48.812;8.198;2023-11-21T08:30:41;3.67;;;2.72;;
82399;SDS011;72039;48.812;8.198;2023-11-21T08:33:09;5.80;;;3.00;;
82399;SDS011;72039;48.812;8.198;2023-11-21T08:35:36;5.57;;;2.90;;
82399;SDS011;72039;48.812;8.198;2023-11-21T08:38:04;4.22;;;2.90;;
82399;SDS011;72039;48.812;8.198;2023-11-21T08:40:29;7.55;;;3.15;;
82399;SDS011;72039;48.812;8.198;2023-11-21T08:42:55;4.10;;;3.00;;
82399;SDS011;72039;48.812;8.198;2023-11-21T08:45:24;6.75;;;3.20;;
82399;SDS011;72039;48.812;8.198;2023-11-21T08:47:50;5.93;;;3.40;;
82399;SDS011;72039;48.812;8.198;2023-11-21T08:50:16;6.20;;;3.60;;
82399;SDS011;72039;48.812;8.198;2023-11-21T08:52:41;5.35;;;3.38;;
82399;SDS011;72039;48.812;8.198;2023-11-21T08:55:10;5.32;;;3.42;;
82399;SDS011;72039;48.812;8.198;2023-11-21T08:57:38;6.75;;;4.32;;
82399;SDS011;72039;48.812;8.198;2023-11-21T09:00:04;5.53;;;3.78;;
82399;SDS011;72039;48.812;8.198;2023-11-21T09:02:33;5.75;;;4.05;;
82399;SDS011;72039;48.812;8.198;2023-11-21T09:05:01;7.00;;;3.55;;
82399;SDS011;72039;48.812;8.198;2023-11-21T09:07:28;8.18;;;3.90;;
82399;SDS011;72039;48.812;8.198;2023-11-21T09:09:56;5.18;;;3.85;;
82399;SDS011;72039;48.812;8.198;2023-11-21T09:12:21;7.05;;;4.25;;
82399;SDS011;72039;48.812;8.198;2023-11-21T09:14:52;6.80;;;4.03;;
82399;SDS011;72039;48.812;8.198;2023-11-21T09:17:23;6.75;;;3.70;;
82399;SDS011;72039;48.812;8.198;2023-11-21T09:19:51;4.70;;;3.45;;
82399;SDS011;72039;48.812;8.198;2023-11-21T09:22:18;5.47;;;4.00;;
82399;SDS011;72039;48.812;8.198;2023-11-21T09:24:47;4.05;;;3.30;;
82399;SDS011;72039;48.812;8.198;2023-11-21T09:27:13;3.53;;;3.03;;
82399;SDS011;72039;48.812;8.198;2023-11-21T09:29:40;7.13;;;2.70;;
82399;SDS011;72039;48.812;8.198;2023-11-21T09:32:05;4.18;;;3.08;;
82399;SDS011;72039;48.812;8.198;2023-11-21T09:34:38;4.72;;;3.88;;
82399;SDS011;72039;48.812;8.198;2023-11-21T09:37:09;7.22;;;3.97;;
82399;SDS011;72039;48.812;8.198;2023-11-21T09:39:35;6.00;;;4.15;;
82399;SDS011;72039;48.812;8.198;2023-11-21T09:42:10;7.70;;;4.75;;
82399;SDS011;72039;48.812;8.198;2023-11-21T09:44:44;8.35;;;5.32;;
82399;SDS011;72039;48.812;8.198;2023-11-21T09:47:14;8.05;;;4.95;;
82399;SDS011;72039;48.812;8.198;2023-11-21T09:49:42;7.65;;;5.78;;
82399;SDS011;72039;48.812;8.198;2023-11-21T09:52:11;8.52;;;5.38;;
82399;SDS011;72039;48.812;8.198;2023-11-21T09:54:53;8.10;;;5.78;;
82399;SDS011;72039;48.812;8.198;2023-11-21T09:57:22;10.03;;;6.87;;
82399;SDS011;72039;48.812;8.198;2023-11-21T09:59:51;9.15;;;6.07;;
82399;SDS011;72039;48.812;8.198;2023-11-21T10:02:27;10.30;;;6.47;;
82399;SDS011;72039;48.812;8.198;2023-11-21T10:04:57;9.85;;;6.25;;
82399;SDS011;72039;48.812;8.198;2023-11-21T10:07:28;11.80;;;6.57;;
82399;SDS011;72039;48.812;8.198;2023-11-21T10:09:58;9.68;;;5.90;;
82399;SDS011;72039;48.812;8.198;2023-11-21T10:12:25;11.82;;;5.97;;
82399;SDS011;72039;48.812;8.198;2023-11-21T10:14:52;9.63;;;5.78;;
82399;SDS011;72039;48.812;8.198;2023-11-21T10:17:22;9.15;;;5.85;;
82399;SDS011;72039;48.812;8.198;2023-11-21T10:19:51;9.40;;;5.82;;
82399;SDS011;72039;48.812;8.198;2023-11-21T10:22:21;8.65;;;5.55;;
82399;SDS011;72039;48.812;8.198;2023-11-21T10:24:49;8.10;;;5.68;;
82399;SDS011;72039;48.812;8.198;2023-11-21T10:30:36;7.35;;;4.82;;
82399;SDS011;72039;48.812;8.198;2023-11-21T10:33:03;6.93;;;4.82;;
82399;SDS011;72039;48.812;8.198;2023-11-21T10:35:39;7.15;;;5.13;;
82399;SDS011;72039;48.812;8.198;2023-11-21T10:38:07;9.35;;;5.20;;
82399;SDS011;72039;48.812;8.198;2023-11-21T10:40:40;11.30;;;5.43;;
82399;SDS011;72039;48.812;8.198;2023-11-21T10:43:07;9.80;;;5.50;;
82399;SDS011;72039;48.812;8.198;2023-11-21T10:45:47;7.10;;;4.97;;
82399;SDS011;72039;48.812;8.198;2023-11-21T10:48:13;8.95;;;5.90;;
82399;SDS011;72039;48.812;8.198;2023-11-21T10:50:45;15.85;;;8.55;;
82399;SDS011;72039;48.812;8.198;2023-11-21T10:53:11;15.38;;;9.77;;
82399;SDS011;72039;48.812;8.198;2023-11-21T10:55:37;14.52;;;8.60;;
82399;SDS011;72039;48.812;8.198;2023-11-21T10:58:03;17.17;;;10.10;;
82399;SDS011;72039;48.812;8.198;2023-11-21T11:00:30;11.30;;;7.85;;
82399;SDS011;72039;48.812;8.198;2023-11-21T11:02:58;15.23;;;8.98;;
82399;SDS011;72039;48.812;8.198;2023-11-21T11:05:24;12.20;;;6.13;;
82399;SDS011;72039;48.812;8.198;2023-11-21T11:08:08;10.93;;;7.00;;
82399;SDS011;72039;48.812;8.198;2023-11-21T11:10:39;12.65;;;7.55;;
82399;SDS011;72039;48.812;8.198;2023-11-21T11:13:06;11.15;;;5.95;;
82399;SDS011;72039;48.812;8.198;2023-11-21T11:15:32;11.57;;;8.07;;
82399;SDS011;72039;48.812;8.198;2023-11-21T11:17:58;11.65;;;7.82;;
82399;SDS011;72039;48.812;8.198;2023-11-21T11:20:29;9.93;;;6.43;;
82399;SDS011;72039;48.812;8.198;2023-11-21T11:28:21;10.40;;;7.50;;
82399;SDS011;72039;48.812;8.198;2023-11-21T11:31:04;18.50;;;11.63;;
82399;SDS011;72039;48.812;8.198;2023-11-21T11:39:37;16.75;;;10.90;;
82399;SDS011;72039;48.812;8.198;2023-11-21T11:42:05;12.15;;;8.45;;
82399;SDS011;72039;48.812;8.198;2023-11-21T13:50:31;5.82;;;4.60;;
82399;SDS011;72039;48.812;8.198;2023-11-21T13:52:59;5.70;;;3.80;;
82399;SDS011;72039;48.812;8.198;2023-11-21T13:55:42;7.75;;;5.05;;
82399;SDS011;72039;48.812;8.198;2023-11-21T13:58:13;7.05;;;4.95;;
82399;SDS011;72039;48.812;8.198;2023-11-21T14:00:44;9.90;;;4.85;;
82399;SDS011;72039;48.812;8.198;2023-11-21T14:03:23;8.55;;;4.93;;
82399;SDS011;72039;48.812;8.198;2023-11-21T14:06:04;6.68;;;4.65;;
82399;SDS011;72039;48.812;8.198;2023-11-21T14:08:39;6.30;;;4.43;;
82399;SDS011;72039;48.812;8.198;2023-11-21T14:11:05;6.75;;;4.68;;
82399;SDS011;72039;48.812;8.198;2023-11-21T14:13:31;6.28;;;4.70;;
82399;SDS011;72039;48.812;8.198;2023-11-21T14:15:57;8.82;;;6.35;;
82399;SDS011;72039;48.812;8.198;2023-11-21T14:18:24;5.78;;;4.85;;
82399;SDS011;72039;48.812;8.198;2023-11-21T14:21:00;7.15;;;5.28;;
82399;SDS011;72039;48.812;8.198;2023-11-21T14:23:26;6.65;;;4.82;;
82399;SDS011;72039;48.812;8.198;2023-11-21T14:25:51;6.68;;;5.40;;
82399;SDS011;72039;48.812;8.198;2023-11-21T14:28:17;10.02;;;8.48;;
82399;SDS011;72039;48.812;8.198;2023-11-21T14:30:43;11.40;;;7.82;;
82399;SDS011;72039;48.812;8.198;2023-11-21T14:33:09;13.20;;;9.10;;
82399;SDS011;72039;48.812;8.198;2023-11-21T14:35:38;14.38;;;9.18;;
82399;SDS011;72039;48.812;8.198;2023-11-21T14:38:03;35.40;;;23.08;;
82399;SDS011;72039;48.812;8.198;2023-11-21T14:40:32;12.82;;;8.45;;
82399;SDS011;72039;48.812;8.198;2023-11-21T14:43:02;7.75;;;5.28;;
82399;SDS011;72039;48.812;8.198;2023-11-21T14:45:34;7.07;;;5.88;;
82399;SDS011;72039;48.812;8.198;2023-11-21T14:48:01;13.00;;;6.35;;
82399;SDS011;72039;48.812;8.198;2023-11-21T14:50:30;12.95;;;8.80;;
82399;SDS011;72039;48.812;8.198;2023-11-21T14:53:11;10.55;;;8.48;;
82399;SDS011;72039;48.812;8.198;2023-11-21T14:55:40;8.73;;;5.95;;
82399;SDS011;72039;48.812;8.198;2023-11-21T14:58:06;8.02;;;5.80;;
82399;SDS011;72039;48.812;8.198;2023-11-21T15:00:40;12.32;;;9.52;;
82399;SDS011;72039;48.812;8.198;2023-11-21T15:03:12;9.45;;;6.45;;
82399;SDS011;72039;48.812;8.198;2023-11-21T15:05:56;6.75;;;5.75;;
82399;SDS011;72039;48.812;8.198;2023-11-21T15:08:21;7.40;;;5.25;;
82399;SDS011;72039;48.812;8.198;2023-11-21T15:10:52;9.90;;;5.85;;
82399;SDS011;72039;48.812;8.198;2023-11-21T15:13:26;10.40;;;7.80;;
82399;SDS011;72039;48.812;8.198;2023-11-21T15:19:17;22.10;;;13.93;;
82399;SDS011;72039;48.812;8.198;2023-11-21T15:21:43;12.25;;;8.30;;
82399;SDS011;72039;48.812;8.198;2023-11-21T15:24:10;13.02;;;8.75;;
82399;SDS011;72039;48.812;8.198;2023-11-21T15:26:38;10.07;;;6.50;;
82399;SDS011;72039;48.812;8.198;2023-11-21T15:29:04;11.70;;;6.07;;
82399;SDS011;72039;48.812;8.198;2023-11-21T15:31:29;9.77;;;6.70;;
82399;SDS011;72039;48.812;8.198;2023-11-21T15:33:57;7.40;;;5.40;;
82399;SDS011;72039;48.812;8.198;2023-11-21T15:36:28;8.85;;;6.15;;
82399;SDS011;72039;48.812;8.198;2023-11-21T15:38:53;9.98;;;5.95;;
82399;SDS011;72039;48.812;8.198;2023-11-21T15:41:21;7.88;;;5.25;;
82399;SDS011;72039;48.812;8.198;2023-11-21T15:43:47;7.93;;;5.60;;
82399;SDS011;72039;48.812;8.198;2023-11-21T15:46:16;9.50;;;6.03;;
82399;SDS011;72039;48.812;8.198;2023-11-21T15:48:41;9.23;;;5.78;;
82399;SDS011;72039;48.812;8.198;2023-11-21T15:51:18;10.60;;;5.68;;
82399;SDS011;72039;48.812;8.198;2023-11-21T15:53:45;7.15;;;5.40;;
82399;SDS011;72039;48.812;8.198;2023-11-21T15:56:11;10.90;;;5.93;;
82399;SDS011;72039;48.812;8.198;2023-11-21T15:58:40;8.80;;;5.78;;
82399;SDS011;72039;48.812;8.198;2023-11-21T16:01:08;8.18;;;5.47;;
82399;SDS011;72039;48.812;8.198;2023-11-21T16:03:35;8.57;;;5.80;;
82399;SDS011;72039;48.812;8.198;2023-11-21T16:06:03;8.15;;;5.70;;
82399;SDS011;72039;48.812;8.198;2023-11-21T16:08:29;7.47;;;5.88;;
82399;SDS011;72039;48.812;8.198;2023-11-21T16:10:55;9.90;;;6.38;;
82399;SDS011;72039;48.812;8.198;2023-11-21T16:13:22;14.13;;;6.32;;
82399;SDS011;72039;48.812;8.198;2023-11-21T16:15:50;13.40;;;7.50;;
82399;SDS011;72039;48.812;8.198;2023-11-21T16:18:19;10.60;;;7.15;;
82399;SDS011;72039;48.812;8.198;2023-11-21T16:20:46;12.60;;;8.70;;
82399;SDS011;72039;48.812;8.198;2023-11-21T16:23:12;11.68;;;7.68;;
82399;SDS011;72039;48.812;8.198;2023-11-21T16:25:41;13.43;;;7.78;;
82399;SDS011;72039;48.812;8.198;2023-11-21T16:28:06;10.55;;;7.60;;
82399;SDS011;72039;48.812;8.198;2023-11-21T16:30:34;11.25;;;7.97;;
82399;SDS011;72039;48.812;8.198;2023-11-21T16:33:00;12.57;;;7.72;;
82399;SDS011;72039;48.812;8.198;2023-11-21T16:35:29;13.55;;;8.27;;
82399;SDS011;72039;48.812;8.198;2023-11-21T16:37:57;13.18;;;9.20;;
82399;SDS011;72039;48.812;8.198;2023-11-21T16:40:22;16.20;;;10.27;;
82399;SDS011;72039;48.812;8.198;2023-11-21T16:42:50;21.75;;;12.93;;
82399;SDS011;72039;48.812;8.198;2023-11-21T16:45:15;17.08;;;11.48;;
82399;SDS011;72039;48.812;8.198;2023-11-21T16:47:44;18.38;;;11.13;;
82399;SDS011;72039;48.812;8.198;2023-11-21T16:50:11;19.55;;;11.68;;
82399;SDS011;72039;48.812;8.198;2023-11-21T16:52:40;15.40;;;9.73;;
82399;SDS011;72039;48.812;8.198;2023-11-21T16:55:09;14.63;;;9.75;;
82399;SDS011;72039;48.812;8.198;2023-11-21T16:57:37;16.10;;;9.25;;
82399;SDS011;72039;48.812;8.198;2023-11-21T17:00:05;12.52;;;9.00;;
82399;SDS011;72039;48.812;8.198;2023-11-21T17:02:32;13.88;;;9.05;;
82399;SDS011;72039;48.812;8.198;2023-11-21T17:04:58;16.58;;;8.88;;
82399;SDS011;72039;48.812;8.198;2023-11-21T17:07:23;17.42;;;10.32;;
82399;SDS011;72039;48.812;8.198;2023-11-21T17:09:51;15.00;;;10.32;;
82399;SDS011;72039;48.812;8.198;2023-11-21T17:12:16;21.52;;;10.70;;
82399;SDS011;72039;48.812;8.198;2023-11-21T17:14:42;17.17;;;10.77;;
82399;SDS011;72039;48.812;8.198;2023-11-21T17:17:08;24.38;;;13.75;;